Time;durP1;ratioP1;P1;durP2;ratioP2;P2;SDS_P1;SDS_P2;PMS_P1;PMS_P2;Temp;Humidity;BMP_temperature;BMP_pressure;BME280_temperature;BME280_humidity;BME280_pressure;Samples;Min_cycle;Max_cycle;Signal;HPM_P1;HPM_P2
2022/08/05 00:00:55;;;;;;;;;;;;;;;24.72;100.00;96043.09;5106293;27;20355;-51
2022/08/05 00:03:28;;;;;;;;;;;;;;;24.54;100.00;96055.75;5105474;27;20503;-50
2022/08/05 00:05:58;;;;;;;;;;;;;;;24.69;100.00;96047.09;5106493;27;20389;-54
2022/08/05 00:08:46;;;;;;;;;;;;;;;24.91;100.00;96032.88;5105816;28;19951;-59
2022/08/05 00:11:16;;;;;;;;;;;;;;;24.57;100.00;96043.63;5106798;27;19963;-55
2022/08/05 00:13:57;;;;;;;;;;;;;;;24.44;100.00;96039.38;5104174;27;19955;-54
2022/08/05 00:16:25;;;;;;;;;;;;;;;24.54;100.00;96042.28;5109570;27;19985;-52
2022/08/05 00:19:04;;;;;;;;;;;;;;;24.49;100.00;96041.34;5102978;27;20352;-49
2022/08/05 00:21:32;;;;;;;;;;;;;;;24.36;100.00;96035.19;5103450;27;19958;-48
2022/08/05 00:24:03;;;;;;;;;;;;;;;24.58;100.00;96031.81;5106541;27;20363;-53
2022/08/05 00:26:39;;;;;;;;;;;;;;;24.36;100.00;96034.34;5099297;28;20397;-51
2022/08/05 00:29:17;;;;;;;;;;;;;;;24.12;100.00;96034.47;5102567;27;19966;-58
2022/08/05 00:31:49;;;;;;;;;;;;;;;24.30;100.00;96035.34;5108967;27;19982;-54
2022/08/05 00:34:37;;;;;;;;;;;;;;;24.29;100.00;96033.69;5105422;28;19959;-55
2022/08/05 00:37:25;;;;;;;;;;;;;;;24.21;100.00;96024.09;5105722;27;20452;-50
2022/08/05 00:40:13;;;;;;;;;;;;;;;24.70;100.00;96026.34;5103765;27;19963;-48
2022/08/05 00:42:54;;;;;;;;;;;;;;;24.78;100.00;96032.16;5110793;27;19962;-47
2022/08/05 00:45:22;;;;;;;;;;;;;;;24.85;100.00;96027.41;5103860;27;20681;-50
2022/08/05 00:48:06;;;;;;;;;;;;;;;24.87;100.00;96022.56;5111999;27;19955;-56
2022/08/05 00:50:34;;;;;;;;;;;;;;;24.67;100.00;96029.50;5104632;27;20444;-47
2022/08/05 00:53:03;;;;;;;;;;;;;;;24.66;100.00;96028.72;5052819;28;19975;-48
2022/08/05 00:55:51;;;;;;;;;;;;;;;24.64;100.00;96020.06;5101762;28;19986;-52
2022/08/05 00:58:20;;;;;;;;;;;;;;;24.53;100.00;96024.44;5102437;28;19971;-48
2022/08/05 01:00:54;;;;;;;;;;;;;;;24.46;100.00;96021.06;5105120;27;19970;-50
2022/08/05 01:03:23;;;;;;;;;;;;;;;24.59;100.00;96022.66;5105103;27;19974;-45
2022/08/05 01:05:57;;;;;;;;;;;;;;;24.53;100.00;96013.66;5105076;27;19967;-45
2022/08/05 01:08:26;;;;;;;;;;;;;;;24.44;100.00;96017.00;5102289;28;19967;-47
2022/08/05 01:11:11;;;;;;;;;;;;;;;24.36;100.00;96013.63;5101669;28;19967;-45
2022/08/05 01:13:45;;;;;;;;;;;;;;;24.34;100.00;96020.31;5106463;27;19970;-51
2022/08/05 01:16:27;;;;;;;;;;;;;;;24.32;100.00;96014.34;5106005;27;19979;-47
2022/08/05 01:18:59;;;;;;;;;;;;;;;24.33;100.00;96019.50;5104609;27;19970;-45
2022/08/05 01:21:37;;;;;;;;;;;;;;;23.54;100.00;96026.53;5101147;28;20266;-45
2022/08/05 01:24:08;;;;;;;;;;;;;;;23.67;100.00;96020.88;5107199;27;19967;-53
2022/08/05 01:26:48;;;;;;;;;;;;;;;23.60;100.00;96022.88;5102959;28;19958;-49
2022/08/05 01:29:19;;;;;;;;;;;;;;;23.59;100.00;96027.44;5103060;27;19958;-51
2022/08/05 01:31:51;;;;;;;;;;;;;;;23.97;100.00;96030.66;5106658;27;19975;-44
2022/08/05 01:34:20;;;;;;;;;;;;;;;24.01;100.00;96029.94;5103724;28;19970;-53
2022/08/05 01:36:49;;;;;;;;;;;;;;;23.86;100.00;96030.47;5102014;28;20527;-46
2022/08/05 01:39:17;;;;;;;;;;;;;;;23.73;100.00;96033.41;5109814;27;19958;-49
2022/08/05 01:42:05;;;;;;;;;;;;;;;23.41;100.00;96028.41;5102210;28;19967;-51
2022/08/05 01:44:37;;;;;;;;;;;;;;;23.53;100.00;96035.66;5105577;28;19974;-47
2022/08/05 01:47:06;;;;;;;;;;;;;;;23.72;100.00;96029.09;5104775;27;19959;-52
2022/08/05 01:49:36;;;;;;;;;;;;;;;23.57;100.00;96023.34;5102290;28;19967;-47
2022/08/05 01:52:24;;;;;;;;;;;;;;;23.46;100.00;96035.78;5102359;28;19959;-58
2022/08/05 01:54:52;;;;;;;;;;;;;;;23.50;100.00;96025.34;5101667;27;19975;-45
2022/08/05 01:57:24;;;;;;;;;;;;;;;23.55;100.00;96028.16;5101803;28;19974;-49
2022/08/05 02:00:14;;;;;;;;;;;;;;;23.58;100.00;96028.50;5102896;28;20401;-47
2022/08/05 02:02:44;;;;;;;;;;;;;;;23.58;100.00;96020.44;5106841;27;19963;-53
2022/08/05 02:05:21;;;;;;;;;;;;;;;23.48;100.00;96016.72;5106063;27;19959;-50
2022/08/05 02:07:50;;;;;;;;;;;;;;;23.38;100.00;96018.13;5104879;28;19962;-55
2022/08/05 02:10:29;;;;;;;;;;;;;;;23.43;100.00;96022.78;5103424;28;19986;-54
2022/08/05 02:13:00;;;;;;;;;;;;;;;23.32;100.00;96020.94;5103142;28;20286;-48
2022/08/05 02:15:30;;;;;;;;;;;;;;;23.23;100.00;96025.88;5106454;27;19927;-50
2022/08/05 02:18:03;;;;;;;;;;;;;;;23.11;100.00;96028.53;5103795;28;19962;-47
2022/08/05 02:20:52;;;;;;;;;;;;;;;22.88;100.00;96029.34;5105111;28;20644;-47
2022/08/05 02:23:26;;;;;;;;;;;;;;;22.92;100.00;96029.69;5103760;28;19974;-50
2022/08/05 02:25:54;;;;;;;;;;;;;;;22.84;100.00;96033.53;5107153;28;19971;-46
2022/08/05 02:28:24;;;;;;;;;;;;;;;22.34;100.00;96039.28;5105136;27;20012;-45
2022/08/05 02:31:00;;;;;;;;;;;;;;;22.44;100.00;96044.91;5103320;28;19970;-48
2022/08/05 02:33:28;;;;;;;;;;;;;;;22.51;100.00;96040.25;5100142;28;19961;-45
2022/08/05 02:36:06;;;;;;;;;;;;;;;22.72;100.00;96035.41;5107641;28;19970;-49
2022/08/05 02:38:36;;;;;;;;;;;;;;;22.59;100.00;96036.41;5104712;28;19967;-50
2022/08/05 02:41:04;;;;;;;;;;;;;;;22.64;100.00;96035.72;5105296;28;19963;-57
2022/08/05 02:43:44;;;;;;;;;;;;;;;22.80;100.00;96031.53;5104404;28;20413;-52
2022/08/05 02:46:34;;;;;;;;;;;;;;;22.92;100.00;96027.84;5099644;28;19963;-55
2022/08/05 02:49:02;;;;;;;;;;;;;;;22.88;100.00;96029.34;5101314;28;19956;-47
2022/08/05 02:51:30;;;;;;;;;;;;;;;22.82;100.00;96024.06;5107946;27;20243;-54
2022/08/05 02:54:18;;;;;;;;;;;;;;;22.93;100.00;96026.78;5106015;27;19963;-48
2022/08/05 02:57:04;;;;;;;;;;;;;;;22.98;100.00;96018.03;5107386;27;19967;-50
2022/08/05 02:59:37;;;;;;;;;;;;;;;22.89;100.00;96017.53;5105688;27;20893;-52
2022/08/05 03:02:20;;;;;;;;;;;;;;;22.95;100.00;96018.47;5104362;27;20369;-46
2022/08/05 03:04:48;;;;;;;;;;;;;;;23.01;100.00;96014.06;5104286;28;19962;-48
2022/08/05 03:07:20;;;;;;;;;;;;;;;23.01;100.00;96008.66;5108565;27;19963;-48
2022/08/05 03:10:08;;;;;;;;;;;;;;;23.01;100.00;96003.28;5109714;27;19983;-47
2022/08/05 03:12:37;;;;;;;;;;;;;;;22.95;100.00;96007.72;5108796;27;20362;-51
2022/08/05 03:15:06;;;;;;;;;;;;;;;22.98;100.00;96009.94;5109643;27;20459;-58
2022/08/05 03:17:37;;;;;;;;;;;;;;;22.99;100.00;96017.00;5104744;27;20385;-55
2022/08/05 03:20:09;;;;;;;;;;;;;;;22.21;100.00;96023.34;5104057;27;19963;-49
2022/08/05 03:22:40;;;;;;;;;;;;;;;21.85;100.00;96025.06;5102547;27;19986;-52
2022/08/05 03:25:16;;;;;;;;;;;;;;;21.93;100.00;96030.09;5108640;28;19958;-51
2022/08/05 03:28:05;;;;;;;;;;;;;;;22.12;100.00;96022.00;5104918;28;20416;-55
2022/08/05 03:30:35;;;;;;;;;;;;;;;22.51;100.00;96015.25;5105564;27;19971;-52
2022/08/05 03:33:06;;;;;;;;;;;;;;;22.60;100.00;96013.03;5107196;27;19947;-47
2022/08/05 03:35:34;;;;;;;;;;;;;;;22.65;100.00;96015.88;5104408;28;20409;-52
2022/08/05 03:38:08;;;;;;;;;;;;;;;22.66;100.00;96007.56;5106177;27;19955;-41
2022/08/05 03:40:39;;;;;;;;;;;;;;;22.60;100.00;96015.72;5101432;28;19963;-45
2022/08/05 03:43:07;;;;;;;;;;;;;;;22.48;100.00;96021.09;5106255;27;19966;-52
2022/08/05 03:45:55;;;;;;;;;;;;;;;22.23;100.00;96018.59;5103626;28;19959;-50
2022/08/05 03:48:27;;;;;;;;;;;;;;;22.18;100.00;96013.88;5104834;27;19967;-53
2022/08/05 03:50:59;;;;;;;;;;;;;;;22.21;100.00;96008.03;5101606;28;19991;-52
2022/08/05 03:53:49;;;;;;;;;;;;;;;22.51;100.00;96008.00;5103466;27;19974;-46
2022/08/05 03:56:38;;;;;;;;;;;;;;;22.46;100.00;96007.88;5104450;27;19959;-45
2022/08/05 03:59:09;;;;;;;;;;;;;;;22.52;100.00;96008.84;5103265;27;19963;-53
2022/08/05 04:01:39;;;;;;;;;;;;;;;22.19;100.00;96015.50;5096395;28;19956;-46
2022/08/05 04:04:08;;;;;;;;;;;;;;;21.98;100.00;96008.75;5108038;27;19989;-47
2022/08/05 04:06:38;;;;;;;;;;;;;;;22.05;100.00;96009.47;5101039;28;19978;-52
2022/08/05 04:09:17;;;;;;;;;;;;;;;22.33;100.00;96007.25;5108033;27;19955;-45
2022/08/05 04:11:53;;;;;;;;;;;;;;;22.48;100.00;96011.16;5102645;27;20002;-50
2022/08/05 04:14:24;;;;;;;;;;;;;;;22.48;100.00;96021.09;5110876;27;20367;-48
2022/08/05 04:16:58;;;;;;;;;;;;;;;22.27;100.00;96019.75;5102420;27;19975;-51
2022/08/05 04:19:29;;;;;;;;;;;;;;;22.65;100.00;96018.56;5097462;28;19974;-47
2022/08/05 04:21:58;;;;;;;;;;;;;;;22.83;100.00;96021.16;5104979;27;19959;-47
2022/08/05 04:24:38;;;;;;;;;;;;;;;23.66;100.00;96013.84;5106828;28;19955;-50
2022/08/05 04:27:12;;;;;;;;;;;;;;;24.27;100.00;96016.94;5100138;28;20410;-52
2022/08/05 04:29:40;;;;;;;;;;;;;;;24.87;100.00;96014.47;5098230;28;19978;-49
2022/08/05 04:32:09;;;;;;;;;;;;;;;25.19;100.00;96016.63;5109728;27;19959;-55
2022/08/05 04:34:38;;;;;;;;;;;;;;;25.66;100.00;96021.56;5102359;28;19970;-52
2022/08/05 04:37:10;;;;;;;;;;;;;;;26.19;100.00;96028.19;5102808;28;20412;-57
2022/08/05 04:39:39;;;;;;;;;;;;;;;26.62;100.00;96031.06;5103873;28;19983;-56
2022/08/05 04:42:08;;;;;;;;;;;;;;;25.77;100.00;96030.59;5096147;28;19963;-48
2022/08/05 04:44:36;;;;;;;;;;;;;;;25.86;100.00;96041.84;5101732;27;19956;-54
2022/08/05 04:47:04;;;;;;;;;;;;;;;25.36;100.00;96061.66;5102267;28;19971;-50
2022/08/05 04:49:39;;;;;;;;;;;;;;;25.24;100.00;96067.16;5102998;27;19951;-53
2022/08/05 04:52:27;;;;;;;;;;;;;;;26.84;100.00;96066.13;5104714;28;19971;-53
2022/08/05 04:54:55;;;;;;;;;;;;;;;27.37;100.00;96057.09;5100211;27;20704;-53
2022/08/05 04:57:24;;;;;;;;;;;;;;;28.05;100.00;96062.66;5104568;28;19979;-61
2022/08/05 04:59:56;;;;;;;;;;;;;;;28.12;100.00;96065.91;5103777;27;19970;-47
2022/08/05 05:02:25;;;;;;;;;;;;;;;28.38;100.00;96068.69;5104209;27;19959;-53
2022/08/05 05:05:09;;;;;;;;;;;;;;;29.12;100.00;96056.63;5099028;28;20374;-47
2022/08/05 05:07:55;;;;;;;;;;;;;;;28.86;100.00;96055.78;5100772;27;19963;-45
2022/08/05 05:10:29;;;;;;;;;;;;;;;28.64;100.00;96056.03;5103188;27;20421;-52
2022/08/05 05:13:00;;;;;;;;;;;;;;;29.01;100.00;96063.97;5100196;28;19967;-51
2022/08/05 05:15:31;;;;;;;;;;;;;;;29.17;100.00;96069.41;5103065;28;19970;-48
2022/08/05 05:18:19;;;;;;;;;;;;;;;29.09;100.00;96068.84;5108610;27;19966;-48
2022/08/05 05:20:59;;;;;;;;;;;;;;;29.33;100.00;96071.81;5106728;28;19970;-48
2022/08/05 05:23:27;;;;;;;;;;;;;;;28.82;100.00;96076.41;5110534;28;19959;-47
2022/08/05 05:26:15;;;;;;;;;;;;;;;28.22;100.00;96072.44;5111280;27;20004;-50
2022/08/05 05:28:43;;;;;;;;;;;;;;;29.31;100.00;96074.00;5106248;27;19974;-51
2022/08/05 05:31:12;;;;;;;;;;;;;;;29.91;100.00;96068.75;5107123;27;19986;-46
2022/08/05 05:33:40;;;;;;;;;;;;;;;28.81;100.00;96070.19;5106356;27;19966;-47
2022/08/05 05:36:28;;;;;;;;;;;;;;;29.46;100.00;96062.31;5110097;27;19977;-48
2022/08/05 05:38:56;;;;;;;;;;;;;;;29.96;100.00;96063.28;5109719;27;19970;-45
2022/08/05 05:41:25;;;;;;;;;;;;;;;29.39;100.00;96075.38;5109970;27;19964;-51
2022/08/05 05:44:08;;;;;;;;;;;;;;;29.68;100.00;96072.06;5108116;27;19965;-48
2022/08/05 05:46:56;;;;;;;;;;;;;;;29.36;100.00;96077.81;5101292;27;19963;-47
2022/08/05 05:49:31;;;;;;;;;;;;;;;28.85;100.00;96075.88;5105414;27;19974;-50
2022/08/05 05:52:01;;;;;;;;;;;;;;;28.49;100.00;96069.56;5106819;28;19974;-54
2022/08/05 05:54:34;;;;;;;;;;;;;;;28.41;100.00;96075.53;5112801;27;20401;-55
2022/08/05 05:57:18;;;;;;;;;;;;;;;28.33;100.00;96074.13;5104899;27;19963;-53
2022/08/05 05:59:46;;;;;;;;;;;;;;;28.47;100.00;96072.56;5103969;27;19966;-53
2022/08/05 06:02:15;;;;;;;;;;;;;;;27.96;100.00;96072.34;5103685;27;19955;-45
2022/08/05 06:04:59;;;;;;;;;;;;;;;28.31;100.00;96068.13;5100927;28;19975;-52
2022/08/05 06:07:31;;;;;;;;;;;;;;;28.47;100.00;96058.19;5101451;28;19959;-51
2022/08/05 06:10:09;;;;;;;;;;;;;;;28.66;100.00;96055.75;5103877;27;19986;-55
2022/08/05 06:12:38;;;;;;;;;;;;;;;28.85;100.00;96056.88;5099848;28;19962;-47
2022/08/05 06:15:09;;;;;;;;;;;;;;;29.25;100.00;96055.25;5098953;28;19967;-57
2022/08/05 06:17:51;;;;;;;;;;;;;;;29.13;100.00;96058.25;5102453;28;19963;-49
2022/08/05 06:20:21;;;;;;;;;;;;;;;29.07;100.00;96062.06;5108299;28;19962;-55
2022/08/05 06:22:51;;;;;;;;;;;;;;;29.05;100.00;96064.25;5106907;28;19924;-54
2022/08/05 06:25:19;;;;;;;;;;;;;;;28.69;100.00;96066.91;5114026;27;19934;-58
2022/08/05 06:28:08;;;;;;;;;;;;;;;28.73;100.00;96067.16;5111229;27;19979;-56
2022/08/05 06:30:47;;;;;;;;;;;;;;;29.00;100.00;96067.75;5111896;27;20427;-50
2022/08/05 06:33:16;;;;;;;;;;;;;;;28.95;100.00;96066.94;5113437;27;19927;-56
2022/08/05 06:35:46;;;;;;;;;;;;;;;28.66;100.00;96070.13;5111254;27;19971;-55
2022/08/05 06:38:35;;;;;;;;;;;;;;;28.98;100.00;96067.19;5112919;27;19973;-53
2022/08/05 06:41:04;;;;;;;;;;;;;;;29.16;100.00;96065.88;5110318;27;19939;-51
2022/08/05 06:43:35;;;;;;;;;;;;;;;29.37;100.00;96065.84;5111211;28;19978;-52
2022/08/05 06:46:23;;;;;;;;;;;;;;;29.67;100.00;96068.53;5109049;27;19958;-54
2022/08/05 06:48:57;;;;;;;;;;;;;;;30.47;100.00;96073.94;5111864;27;19962;-51
2022/08/05 06:51:27;;;;;;;;;;;;;;;29.55;100.00;96068.78;5106623;27;19969;-46
2022/08/05 06:53:59;;;;;;;;;;;;;;;29.70;100.00;96087.03;5114282;27;19971;-51
2022/08/05 06:56:29;;;;;;;;;;;;;;;29.48;100.00;96072.88;5111834;28;19975;-55
2022/08/05 06:59:01;;;;;;;;;;;;;;;29.64;95.38;96081.88;5107012;27;19966;-52
2022/08/05 07:01:29;;;;;;;;;;;;;;;29.76;97.23;96090.53;5110197;27;20346;-52
2022/08/05 07:04:00;;;;;;;;;;;;;;;30.23;91.07;96089.31;5108269;27;19977;-54
2022/08/05 07:06:29;;;;;;;;;;;;;;;30.05;93.65;96088.00;5112798;27;19969;-51
2022/08/05 07:09:00;;;;;;;;;;;;;;;30.19;91.20;96090.97;5111645;27;19969;-47
2022/08/05 07:11:31;;;;;;;;;;;;;;;30.51;89.93;96096.78;5114196;27;19954;-51
2022/08/05 07:16:59;;;;;;;;;;;;;;;31.30;82.65;96102.25;5110696;27;20413;-49
2022/08/05 07:19:49;;;;;;;;;;;;;;;31.00;79.26;96110.66;5107712;27;19928;-53
2022/08/05 07:22:37;;;;;;;;;;;;;;;31.70;72.53;96105.75;5100043;28;19963;-49
2022/08/05 07:25:07;;;;;;;;;;;;;;;31.17;79.84;96113.81;5112174;28;19966;-56
2022/08/05 07:27:55;;;;;;;;;;;;;;;31.02;75.19;96128.34;5107508;28;19959;-50
2022/08/05 07:30:34;;;;;;;;;;;;;;;30.89;74.69;96126.25;5103579;27;19928;-55
2022/08/05 07:33:07;;;;;;;;;;;;;;;30.86;77.28;96130.34;5105625;27;19923;-48
2022/08/05 07:35:37;;;;;;;;;;;;;;;31.08;76.74;96134.59;5111154;27;20357;-56
2022/08/05 07:38:25;;;;;;;;;;;;;;;31.14;75.49;96144.31;5100878;27;19928;-50
2022/08/05 07:41:04;;;;;;;;;;;;;;;31.13;78.88;96140.78;5105677;27;19923;-50
2022/08/05 07:43:52;;;;;;;;;;;;;;;30.68;79.28;96139.97;5112794;27;19975;-51
2022/08/05 07:46:23;;;;;;;;;;;;;;;30.59;75.95;96152.53;5108393;27;19955;-52
2022/08/05 07:48:53;;;;;;;;;;;;;;;29.95;84.81;96161.44;5106573;27;19970;-54
2022/08/05 07:51:35;;;;;;;;;;;;;;;29.48;89.70;96160.66;5104061;27;19960;-54
2022/08/05 07:54:25;;;;;;;;;;;;;;;29.77;88.82;96173.72;5109426;27;20383;-49
2022/08/05 07:57:02;;;;;;;;;;;;;;;29.75;87.35;96171.25;5106684;27;20015;-59
2022/08/05 07:59:50;;;;;;;;;;;;;;;30.12;91.25;96185.63;5107373;27;19955;-54
2022/08/05 08:02:18;;;;;;;;;;;;;;;30.59;81.69;96190.63;5109916;27;19971;-54
2022/08/05 08:04:53;;;;;;;;;;;;;;;31.03;80.86;96187.16;5111193;27;19955;-54
2022/08/05 08:07:21;;;;;;;;;;;;;;;31.20;74.25;96184.88;5112501;27;19965;-53
2022/08/05 08:09:51;;;;;;;;;;;;;;;30.94;84.18;96186.16;5107025;27;19969;-58
2022/08/05 08:12:23;;;;;;;;;;;;;;;30.33;90.68;96191.84;5109355;27;19962;-49
2022/08/05 08:15:05;;;;;;;;;;;;;;;30.93;80.37;96192.69;5108420;27;19962;-49
2022/08/05 08:17:41;;;;;;;;;;;;;;;30.97;75.50;96189.13;5106267;27;19955;-53
2022/08/05 08:20:20;;;;;;;;;;;;;;;30.90;81.14;96194.06;5104982;28;19966;-56
2022/08/05 08:23:08;;;;;;;;;;;;;;;30.83;78.31;96207.16;5103759;27;19962;-52
2022/08/05 08:25:56;;;;;;;;;;;;;;;31.30;77.46;96211.25;5106451;27;19967;-60
2022/08/05 08:28:29;;;;;;;;;;;;;;;31.03;76.42;96208.16;5110943;27;19955;-46
2022/08/05 08:31:04;;;;;;;;;;;;;;;31.46;75.72;96214.72;5104729;27;19955;-54
2022/08/05 08:33:32;;;;;;;;;;;;;;;31.72;70.00;96209.88;5109109;27;19963;-52
2022/08/05 08:36:05;;;;;;;;;;;;;;;31.92;67.11;96217.09;5107018;27;19963;-54
2022/08/05 08:38:54;;;;;;;;;;;;;;;31.94;64.85;96208.63;5103114;27;19958;-60
2022/08/05 08:41:22;;;;;;;;;;;;;;;32.26;63.75;96227.13;5103300;27;19959;-56
2022/08/05 08:44:12;;;;;;;;;;;;;;;32.17;63.23;96224.19;5107528;27;20037;-54
2022/08/05 08:47:00;;;;;;;;;;;;;;;31.61;62.54;96232.88;5102737;28;19963;-55
2022/08/05 08:49:29;;;;;;;;;;;;;;;32.19;64.19;96238.38;5111188;27;19978;-54
2022/08/05 08:52:17;;;;;;;;;;;;;;;31.73;58.57;96233.31;5107285;27;19970;-58
2022/08/05 08:54:46;;;;;;;;;;;;;;;31.67;56.12;96245.38;5105346;27;19974;-53
2022/08/05 08:57:14;;;;;;;;;;;;;;;31.50;57.36;96244.94;5102916;27;20426;-52
2022/08/05 08:59:45;;;;;;;;;;;;;;;31.81;58.94;96246.34;5106375;27;19990;-59
2022/08/05 09:02:17;;;;;;;;;;;;;;;31.65;59.17;96251.09;5107065;27;19963;-58
2022/08/05 09:04:46;;;;;;;;;;;;;;;31.78;57.32;96246.91;5104288;27;19967;-56
2022/08/05 09:07:34;;;;;;;;;;;;;;;32.29;56.23;96253.84;5103522;28;19956;-54
2022/08/05 09:10:22;;;;;;;;;;;;;;;32.50;54.33;96251.75;5102769;27;20394;-60
2022/08/05 09:12:56;;;;;;;;;;;;;;;32.59;54.20;96248.09;5102210;28;20400;-51
2022/08/05 09:15:33;;;;;;;;;;;;;;;32.66;52.62;96261.41;5110206;27;19955;-49
2022/08/05 09:18:06;;;;;;;;;;;;;;;32.71;52.23;96257.78;5105069;27;19973;-52
2022/08/05 09:20:35;;;;;;;;;;;;;;;32.37;52.28;96254.00;5101160;27;19974;-53
2022/08/05 09:23:10;;;;;;;;;;;;;;;32.38;52.33;96260.28;5106423;27;19955;-57
2022/08/05 09:25:47;;;;;;;;;;;;;;;32.57;54.36;96257.66;5109465;28;20617;-53
2022/08/05 09:28:31;;;;;;;;;;;;;;;33.09;52.73;96261.44;5109227;27;19927;-55
2022/08/05 09:31:04;;;;;;;;;;;;;;;32.94;51.45;96265.16;5103440;27;20369;-54
2022/08/05 09:33:53;;;;;;;;;;;;;;;32.90;51.68;96277.78;5107193;27;19970;-48
2022/08/05 09:36:21;;;;;;;;;;;;;;;32.46;52.27;96278.81;5106531;27;20397;-52
2022/08/05 09:39:01;;;;;;;;;;;;;;;32.93;51.42;96276.34;5104929;27;19953;-57
2022/08/05 09:41:29;;;;;;;;;;;;;;;32.94;49.93;96270.59;5104609;27;19963;-56
2022/08/05 09:44:00;;;;;;;;;;;;;;;33.51;50.77;96271.50;5108053;27;19970;-53
2022/08/05 09:46:29;;;;;;;;;;;;;;;33.33;48.51;96266.84;5105005;28;19980;-48
2022/08/05 09:48:58;;;;;;;;;;;;;;;32.92;52.18;96261.06;5106752;27;19955;-52
2022/08/05 09:51:45;;;;;;;;;;;;;;;33.39;49.57;96262.13;5106291;27;19967;-51
2022/08/05 09:54:17;;;;;;;;;;;;;;;33.34;48.10;96263.00;5106252;27;19969;-59
2022/08/05 09:56:55;;;;;;;;;;;;;;;33.81;46.30;96266.69;5104111;27;19966;-59
2022/08/05 09:59:24;;;;;;;;;;;;;;;33.48;45.42;96272.13;5101112;28;19963;-54
2022/08/05 10:01:56;;;;;;;;;;;;;;;34.04;44.34;96266.91;5107799;28;19967;-54
2022/08/05 10:04:33;;;;;;;;;;;;;;;33.93;46.33;96266.22;5108382;27;19974;-51
2022/08/05 10:07:01;;;;;;;;;;;;;;;34.04;44.98;96258.69;5106007;27;19981;-54
2022/08/05 10:09:55;;;;;;;;;;;;;;;33.90;44.14;96251.22;5102917;28;20451;-52
2022/08/05 10:12:45;;;;;;;;;;;;;;;33.75;44.75;96260.47;5108234;27;19963;-55
2022/08/05 10:15:21;;;;;;;;;;;;;;;33.84;44.59;96259.81;5104419;27;19986;-52
2022/08/05 10:18:10;;;;;;;;;;;;;;;34.19;44.65;96261.16;5104804;28;20364;-54
2022/08/05 10:20:40;;;;;;;;;;;;;;;33.90;43.42;96267.66;5104328;28;19986;-55
2022/08/05 10:23:09;;;;;;;;;;;;;;;33.66;43.82;96269.69;5102521;28;19963;-47
2022/08/05 10:25:58;;;;;;;;;;;;;;;33.67;44.33;96274.84;5105897;28;19970;-53
2022/08/05 10:28:27;;;;;;;;;;;;;;;34.00;43.80;96275.72;5105810;28;19963;-54
2022/08/05 10:30:57;;;;;;;;;;;;;;;33.56;44.98;96281.59;5107184;28;19955;-55
2022/08/05 10:33:47;;;;;;;;;;;;;;;34.40;44.21;96284.31;5103009;28;20355;-55
2022/08/05 10:36:21;;;;;;;;;;;;;;;34.47;42.82;96290.19;5109112;28;19955;-55
2022/08/05 10:38:53;;;;;;;;;;;;;;;34.14;42.49;96281.22;5103710;28;20408;-49
2022/08/05 10:41:23;;;;;;;;;;;;;;;34.07;45.28;96279.97;5108749;28;19959;-52
2022/08/05 10:43:52;;;;;;;;;;;;;;;34.97;41.56;96284.06;5108486;28;20386;-51
2022/08/05 10:46:21;;;;;;;;;;;;;;;35.23;40.87;96278.06;5108763;28;19967;-52
2022/08/05 10:48:55;;;;;;;;;;;;;;;34.92;41.31;96282.22;5108789;28;19967;-53
2022/08/05 10:51:41;;;;;;;;;;;;;;;34.37;40.85;96293.13;5104959;28;20390;-49
2022/08/05 10:54:45;;;;;;;;;;;;;;;34.50;40.89;96284.13;5103510;28;20415;-52
2022/08/05 10:57:26;;;;;;;;;;;;;;;34.68;39.97;96276.16;5109226;28;20375;-49
2022/08/05 11:00:09;;;;;;;;;;;;;;;34.39;40.42;96279.16;5107419;28;20344;-53
2022/08/05 11:03:04;;;;;;;;;;;;;;;34.66;40.33;96284.69;5107702;28;19974;-52
2022/08/05 11:06:13;;;;;;;;;;;;;;;34.88;40.22;96286.72;5101349;28;19955;-52
2022/08/05 11:09:03;;;;;;;;;;;;;;;35.06;39.15;96282.25;5107162;28;19963;-49
2022/08/05 11:11:34;;;;;;;;;;;;;;;35.39;38.00;96277.44;5108086;27;19951;-62
2022/08/05 11:14:23;;;;;;;;;;;;;;;35.40;37.99;96278.25;5119527;27;20385;-50
2022/08/05 11:17:31;;;;;;;;;;;;;;;35.66;37.95;96271.09;5108946;27;19985;-54
2022/08/05 11:20:32;;;;;;;;;;;;;;;35.61;39.55;96270.38;5111493;27;19963;-52
2022/08/05 11:23:22;;;;;;;;;;;;;;;35.67;38.28;96269.97;5106106;28;19978;-54
2022/08/05 11:26:00;;;;;;;;;;;;;;;35.51;38.41;96271.44;5113079;28;19963;-54
2022/08/05 11:28:41;;;;;;;;;;;;;;;35.50;37.74;96272.53;5112517;28;19963;-47
2022/08/05 11:31:26;;;;;;;;;;;;;;;35.96;37.26;96276.13;5106525;28;19928;-63
2022/08/05 11:34:14;;;;;;;;;;;;;;;36.21;35.80;96275.53;5109308;28;19971;-57
2022/08/05 11:36:50;;;;;;;;;;;;;;;36.01;36.61;96265.88;5112751;28;19970;-54
2022/08/05 11:39:38;;;;;;;;;;;;;;;35.37;36.68;96274.19;5113298;27;19979;-51
2022/08/05 11:42:16;;;;;;;;;;;;;;;35.53;38.16;96269.19;5112448;28;20412;-56
2022/08/05 11:44:46;;;;;;;;;;;;;;;35.71;38.41;96269.34;5112885;27;20397;-55
2022/08/05 11:47:22;;;;;;;;;;;;;;;34.92;38.45;96270.47;5111724;28;19955;-47
2022/08/05 11:50:10;;;;;;;;;;;;;;;35.84;36.33;96266.53;5106982;28;19923;-54
2022/08/05 11:52:41;;;;;;;;;;;;;;;36.33;35.40;96263.97;5111979;28;19962;-53
2022/08/05 11:55:12;;;;;;;;;;;;;;;36.58;35.97;96266.06;5112465;28;19963;-52
2022/08/05 11:57:46;;;;;;;;;;;;;;;36.95;34.65;96254.88;5112232;28;19959;-51
2022/08/05 12:00:34;;;;;;;;;;;;;;;36.96;36.10;96261.97;5111864;28;19970;-54
2022/08/05 12:03:19;;;;;;;;;;;;;;;36.83;37.21;96258.25;5111791;28;19957;-50
2022/08/05 12:05:59;;;;;;;;;;;;;;;37.53;34.51;96253.72;5108736;28;20372;-51
2022/08/05 12:08:27;;;;;;;;;;;;;;;37.25;34.61;96250.44;5112141;28;19970;-48
2022/08/05 12:11:00;;;;;;;;;;;;;;;37.16;34.67;96260.59;5111645;27;19967;-52
2022/08/05 12:13:34;;;;;;;;;;;;;;;37.15;33.93;96246.03;5110748;28;20366;-55
2022/08/05 12:16:19;;;;;;;;;;;;;;;36.58;34.78;96251.50;5107188;27;19959;-57
2022/08/05 12:18:54;;;;;;;;;;;;;;;36.59;35.53;96245.69;5110017;28;20456;-51
2022/08/05 12:21:23;;;;;;;;;;;;;;;36.70;34.78;96246.22;5111660;27;19971;-50
2022/08/05 12:24:00;;;;;;;;;;;;;;;37.21;35.00;96238.47;5111053;28;20356;-51
2022/08/05 12:26:32;;;;;;;;;;;;;;;36.48;34.76;96244.38;5111687;28;19958;-49
2022/08/05 12:29:02;;;;;;;;;;;;;;;36.41;35.07;96237.66;5111069;28;19971;-56
2022/08/05 12:31:32;;;;;;;;;;;;;;;36.60;34.09;96241.81;5105802;28;19962;-48
2022/08/05 12:34:15;;;;;;;;;;;;;;;36.31;35.98;96242.31;5111967;28;19951;-51
2022/08/05 12:36:48;;;;;;;;;;;;;;;36.28;36.52;96237.44;5105693;28;19959;-51
2022/08/05 12:39:16;;;;;;;;;;;;;;;36.57;36.07;96234.22;5104627;28;20330;-53
2022/08/05 12:41:45;;;;;;;;;;;;;;;36.44;36.64;96234.28;5104903;28;20405;-57
2022/08/05 12:44:32;;;;;;;;;;;;;;;36.57;35.67;96231.47;5103427;28;19963;-57
2022/08/05 12:47:01;;;;;;;;;;;;;;;36.89;35.37;96228.66;5110879;28;19978;-52
2022/08/05 12:49:38;;;;;;;;;;;;;;;37.40;33.87;96216.94;5111156;28;19986;-50
2022/08/05 12:52:27;;;;;;;;;;;;;;;37.08;35.47;96217.41;5110612;28;19967;-51
2022/08/05 12:55:02;;;;;;;;;;;;;;;37.22;34.87;96218.88;5111303;28;19963;-48
2022/08/05 12:57:35;;;;;;;;;;;;;;;36.99;34.73;96212.69;5110834;28;19966;-54
2022/08/05 13:00:25;;;;;;;;;;;;;;;37.46;34.27;96201.13;5109483;28;19967;-50
2022/08/05 13:03:13;;;;;;;;;;;;;;;37.12;34.54;96196.38;5110775;28;19962;-57
2022/08/05 13:05:42;;;;;;;;;;;;;;;36.41;35.34;96202.78;5111191;28;19954;-57
2022/08/05 13:08:10;;;;;;;;;;;;;;;36.98;35.16;96191.81;5108194;28;19967;-54
2022/08/05 13:10:42;;;;;;;;;;;;;;;37.77;34.85;96192.66;5110103;28;19951;-55
2022/08/05 13:13:19;;;;;;;;;;;;;;;38.03;33.38;96191.81;5108592;28;20411;-52
2022/08/05 13:16:13;;;;;;;;;;;;;;;37.37;35.09;96192.00;5109997;27;19963;-50
2022/08/05 13:18:50;;;;;;;;;;;;;;;36.48;35.86;96199.56;5110201;28;19963;-50
2022/08/05 13:21:18;;;;;;;;;;;;;;;37.39;34.19;96192.50;5110767;28;19967;-50
2022/08/05 13:23:46;;;;;;;;;;;;;;;38.12;33.39;96187.91;5110588;28;19955;-51
2022/08/05 13:26:19;;;;;;;;;;;;;;;38.28;32.93;96190.13;5110557;28;20057;-54
2022/08/05 13:28:57;;;;;;;;;;;;;;;37.27;33.64;96191.22;5110773;28;20398;-56